Time;durP1;ratioP1;P1;durP2;ratioP2;P2;SDS_P1;SDS_P2;PMS_P1;PMS_P2;Temp;Humidity;BMP_temperature;BMP_pressure;BME280_temperature;BME280_humidity;BME280_pressure;Samples;Min_cycle;Max_cycle;Signal;HPM_P1;HPM_P2
2023/04/12 00:01:07;;;;;;;16.70;11.53;;;4.20;90.80;;;;;;4992792;28;20217;-91
2023/04/12 00:03:35;;;;;;;19.27;11.83;;;4.30;90.80;;;;;;4992606;28;20201;-90
2023/04/12 00:06:02;;;;;;;14.33;11.90;;;4.20;90.80;;;;;;4992709;28;20188;-91
2023/04/12 00:08:32;;;;;;;17.63;11.73;;;4.20;90.80;;;;;;4992725;28;20208;-90
2023/04/12 00:10:59;;;;;;;15.57;11.97;;;4.30;90.70;;;;;;4992612;28;20172;-91
2023/04/12 00:13:25;;;;;;;17.07;11.90;;;4.20;90.60;;;;;;4993878;28;20217;-91
2023/04/12 00:15:50;;;;;;;13.17;10.90;;;4.20;90.60;;;;;;4992600;28;20203;-91
2023/04/12 00:18:19;;;;;;;12.63;10.57;;;4.10;90.50;;;;;;4992507;28;20271;-91
2023/04/12 00:20:44;;;;;;;13.70;11.10;;;4.10;90.50;;;;;;4993536;28;20178;-91
2023/04/12 00:23:11;;;;;;;17.90;11.10;;;4.20;90.50;;;;;;4992527;28;20215;-90
2023/04/12 00:25:38;;;;;;;16.57;11.53;;;4.20;90.40;;;;;;4992647;28;20240;-91
2023/04/12 00:28:04;;;;;;;13.37;11.23;;;4.10;90.30;;;;;;4992615;28;20177;-90
2023/04/12 00:30:29;;;;;;;15.77;11.47;;;4.10;90.30;;;;;;4993521;28;20581;-91
2023/04/12 00:32:55;;;;;;;17.50;11.70;;;4.00;90.20;;;;;;4992517;28;20194;-90
2023/04/12 00:35:20;;;;;;;14.60;11.40;;;4.00;90.20;;;;;;4992723;28;20245;-91
2023/04/12 00:37:46;;;;;;;14.63;10.67;;;4.10;90.30;;;;;;4992406;28;20557;-91
2023/04/12 00:40:12;;;;;;;22.97;11.53;;;4.10;90.30;;;;;;4992494;28;20193;-91
2023/04/12 00:42:37;;;;;;;17.27;11.00;;;4.10;90.10;;;;;;4992180;28;20239;-90
2023/04/12 00:45:03;;;;;;;13.20;10.93;;;4.00;90.10;;;;;;4993203;28;20174;-90
2023/04/12 00:47:31;;;;;;;17.30;10.97;;;4.00;90.20;;;;;;4992305;28;20653;-90
2023/04/12 00:49:58;;;;;;;13.47;11.23;;;3.90;90.20;;;;;;4993606;28;20170;-90
2023/04/12 00:52:23;;;;;;;15.90;12.30;;;3.90;90.20;;;;;;4992161;28;20204;-90
2023/04/12 00:54:50;;;;;;;17.03;11.90;;;3.90;90.30;;;;;;4992221;28;20185;-90
2023/04/12 00:57:16;;;;;;;14.70;10.77;;;3.90;90.40;;;;;;4993133;28;20244;-91
2023/04/12 00:59:41;;;;;;;12.80;11.17;;;4.00;90.50;;;;;;4992384;28;20185;-91
2023/04/12 01:02:07;;;;;;;15.37;12.30;;;4.00;90.40;;;;;;4993838;28;20563;-89
2023/04/12 01:04:36;;;;;;;15.00;11.87;;;4.00;90.40;;;;;;4996858;28;20185;-91
2023/04/12 01:07:17;;;;;;;14.53;11.37;;;4.00;90.40;;;;;;4996015;28;20176;-91
2023/04/12 01:10:11;;;;;;;14.17;11.53;;;3.90;90.40;;;;;;4995793;28;20180;-90
2023/04/12 01:12:59;;;;;;;13.93;11.03;;;3.90;90.50;;;;;;4995611;28;20706;-90
2023/04/12 01:15:26;;;;;;;14.33;10.57;;;3.90;90.60;;;;;;4995675;28;20162;-90
2023/04/12 01:17:57;;;;;;;22.90;12.37;;;3.90;90.60;;;;;;4995635;28;20218;-90
2023/04/12 01:20:29;;;;;;;18.40;12.83;;;3.80;90.60;;;;;;4995646;28;20175;-90
2023/04/12 01:23:38;;;;;;;16.23;12.80;;;3.90;90.80;;;;;;4996954;28;20216;-90
2023/04/12 01:26:24;;;;;;;17.10;11.70;;;3.90;90.80;;;;;;4996914;28;20159;-91
2023/04/12 01:28:53;;;;;;;22.10;12.97;;;3.90;90.90;;;;;;4996408;28;20238;-92
2023/04/12 01:31:20;;;;;;;18.83;12.03;;;3.90;90.90;;;;;;4995318;28;20271;-91
2023/04/12 01:33:48;;;;;;;15.90;11.23;;;3.90;91.00;;;;;;4995260;28;20204;-91
2023/04/12 01:36:17;;;;;;;16.23;11.23;;;3.90;91.00;;;;;;4995130;28;20238;-91
2023/04/12 01:38:44;;;;;;;25.53;11.27;;;3.90;91.00;;;;;;4995274;28;20191;-91
2023/04/12 01:41:10;;;;;;;14.80;10.90;;;3.80;91.00;;;;;;4995419;28;20960;-91
2023/04/12 01:43:46;;;;;;;26.40;11.97;;;3.80;91.10;;;;;;4995626;28;20190;-92
2023/04/12 01:46:18;;;;;;;17.60;12.10;;;3.80;91.10;;;;;;4995338;28;20174;-92
2023/04/12 01:48:52;;;;;;;14.73;11.77;;;3.80;91.10;;;;;;4994980;28;20164;-91
2023/04/12 01:51:56;;;;;;;19.47;12.33;;;3.80;91.20;;;;;;4994972;28;20178;-91
2023/04/12 01:54:26;;;;;;;15.97;11.63;;;3.80;91.20;;;;;;4994293;28;20188;-92
2023/04/12 01:56:56;;;;;;;16.50;11.23;;;3.80;91.20;;;;;;4994889;28;20548;-91
2023/04/12 01:59:26;;;;;;;16.87;12.13;;;3.90;91.30;;;;;;4995591;28;20175;-91
2023/04/12 02:01:51;;;;;;;17.60;11.27;;;3.90;91.30;;;;;;4994933;28;20195;-90
2023/04/12 02:04:18;;;;;;;26.63;11.90;;;3.90;91.30;;;;;;4994935;28;20181;-92
2023/04/12 02:06:45;;;;;;;17.60;11.13;;;3.90;91.30;;;;;;4994541;28;20265;-91
2023/04/12 02:09:10;;;;;;;13.87;10.20;;;3.90;91.20;;;;;;4994699;28;20326;-90
2023/04/12 02:11:36;;;;;;;17.43;10.27;;;4.00;91.20;;;;;;4994612;28;20211;-90
2023/04/12 02:14:02;;;;;;;16.30;10.67;;;4.00;91.20;;;;;;4993526;28;20186;-91
2023/04/12 02:16:31;;;;;;;14.50;10.43;;;4.00;91.10;;;;;;4994503;28;20180;-91
2023/04/12 02:18:57;;;;;;;13.03;9.73;;;4.00;91.00;;;;;;4994477;28;20185;-91
2023/04/12 02:21:23;;;;;;;14.30;10.80;;;4.00;90.90;;;;;;4994295;28;20203;-91
2023/04/12 02:23:49;;;;;;;19.60;9.70;;;4.10;90.80;;;;;;4995387;28;20199;-90
2023/04/12 02:26:15;;;;;;;16.47;10.00;;;4.00;90.70;;;;;;4994261;28;20180;-90
2023/04/12 02:28:41;;;;;;;15.07;10.10;;;4.10;90.80;;;;;;4995137;28;20197;-90
2023/04/12 02:31:07;;;;;;;17.73;9.40;;;4.20;90.60;;;;;;4994282;28;20188;-90
2023/04/12 02:33:33;;;;;;;21.47;9.10;;;4.20;90.50;;;;;;4994245;28;20246;-90
2023/04/12 02:36:02;;;;;;;11.77;9.00;;;4.30;90.40;;;;;;4994489;28;20212;-91
2023/04/12 02:38:29;;;;;;;19.00;9.77;;;4.30;90.20;;;;;;4994238;28;20176;-90
2023/04/12 02:40:55;;;;;;;21.07;8.90;;;4.30;90.10;;;;;;4993982;28;20299;-91
2023/04/12 02:43:20;;;;;;;21.27;8.80;;;4.40;90.00;;;;;;4995137;28;20187;-89
2023/04/12 02:45:47;;;;;;;14.80;9.07;;;4.40;89.80;;;;;;4993946;28;20275;-91
2023/04/12 02:48:12;;;;;;;17.27;9.93;;;4.40;89.70;;;;;;4995216;28;20222;-90
2023/04/12 02:50:38;;;;;;;8.67;7.90;;;4.50;89.50;;;;;;4993910;28;20659;-90
2023/04/12 02:53:04;;;;;;;14.43;9.07;;;4.50;89.30;;;;;;4993686;28;20566;-91
2023/04/12 02:55:30;;;;;;;12.23;8.83;;;4.50;89.10;;;;;;4993678;28;20178;-90
2023/04/12 02:57:56;;;;;;;10.23;8.33;;;4.60;89.00;;;;;;4995111;28;20172;-90
2023/04/12 03:00:22;;;;;;;14.07;8.97;;;4.60;88.80;;;;;;4993718;28;20398;-90
2023/04/12 03:02:51;;;;;;;14.77;8.80;;;4.60;88.70;;;;;;4993553;28;20311;-91
2023/04/12 03:05:17;;;;;;;11.97;8.33;;;4.70;88.60;;;;;;4993699;28;20178;-90
2023/04/12 03:07:43;;;;;;;14.20;8.60;;;4.70;88.50;;;;;;4993885;28;20180;-91
2023/04/12 03:10:12;;;;;;;9.60;8.60;;;4.70;88.40;;;;;;4994693;28;20260;-91
2023/04/12 03:12:38;;;;;;;11.30;8.53;;;4.70;88.30;;;;;;4993639;28;20216;-91
2023/04/12 03:15:04;;;;;;;21.23;9.37;;;4.70;88.20;;;;;;4993418;28;20646;-90
2023/04/12 03:17:29;;;;;;;11.97;8.30;;;4.80;88.20;;;;;;4993265;28;20182;-91
2023/04/12 03:19:56;;;;;;;10.00;9.10;;;4.80;88.00;;;;;;4993589;28;20184;-90
2023/04/12 03:22:24;;;;;;;14.40;8.83;;;4.80;87.90;;;;;;4993172;28;20208;-90
2023/04/12 03:24:50;;;;;;;9.77;8.20;;;4.80;87.80;;;;;;4993316;28;20652;-90
2023/04/12 03:27:16;;;;;;;8.07;7.23;;;4.80;87.80;;;;;;4993952;28;20197;-91
2023/04/12 03:29:41;;;;;;;12.00;7.43;;;4.80;87.70;;;;;;4993726;28;20169;-91
2023/04/12 03:32:07;;;;;;;9.87;8.00;;;4.80;87.60;;;;;;4993315;28;20201;-90
2023/04/12 03:34:32;;;;;;;11.60;7.13;;;4.80;87.50;;;;;;4993999;28;20184;-90
2023/04/12 03:37:00;;;;;;;12.97;8.10;;;4.80;87.30;;;;;;4993060;28;20213;-91
2023/04/12 03:39:25;;;;;;;8.00;7.40;;;4.80;87.20;;;;;;4993023;28;20181;-90
2023/04/12 03:41:52;;;;;;;12.50;7.43;;;4.80;87.10;;;;;;4992758;28;20577;-90
2023/04/12 03:44:18;;;;;;;8.63;7.80;;;4.80;87.00;;;;;;4992939;28;20213;-90
2023/04/12 03:46:43;;;;;;;11.83;7.87;;;4.80;86.80;;;;;;4992799;28;20181;-90
2023/04/12 03:49:09;;;;;;;9.50;7.60;;;4.80;86.70;;;;;;4992952;28;20184;-91
2023/04/12 03:51:35;;;;;;;9.60;7.00;;;4.90;86.60;;;;;;4992805;28;20262;-90
2023/04/12 03:54:03;;;;;;;7.87;7.07;;;4.90;86.40;;;;;;4992759;28;20251;-91
2023/04/12 03:56:29;;;;;;;11.63;6.90;;;5.00;86.20;;;;;;4992828;28;20188;-90
2023/04/12 03:58:54;;;;;;;9.47;7.83;;;5.00;86.00;;;;;;4992824;28;20560;-91
2023/04/12 04:01:20;;;;;;;8.63;7.50;;;5.00;85.80;;;;;;4992602;28;20208;-90
2023/04/12 04:03:46;;;;;;;7.53;6.83;;;5.00;85.70;;;;;;4992987;28;20256;-90
2023/04/12 04:06:12;;;;;;;7.90;6.50;;;4.90;85.60;;;;;;4992714;28;20184;-91
2023/04/12 04:08:38;;;;;;;12.63;7.23;;;5.00;85.40;;;;;;4992572;28;20185;-90
2023/04/12 04:11:04;;;;;;;11.57;7.40;;;5.00;85.20;;;;;;4992674;28;20275;-90
2023/04/12 04:13:29;;;;;;;15.00;7.00;;;5.00;85.20;;;;;;4992634;28;20247;-90
2023/04/12 04:16:02;;;;;;;8.63;7.23;;;5.00;85.20;;;;;;4992931;28;20182;-90
2023/04/12 04:18:27;;;;;;;9.57;6.67;;;5.00;84.90;;;;;;4994186;28;20190;-91
2023/04/12 04:20:54;;;;;;;10.73;6.80;;;5.00;84.90;;;;;;4992834;28;20181;-90
2023/04/12 04:23:19;;;;;;;15.67;7.00;;;5.00;84.70;;;;;;4992524;28;20594;-91
2023/04/12 04:25:45;;;;;;;7.27;6.63;;;5.00;84.60;;;;;;4992498;28;20177;-90
2023/04/12 04:28:10;;;;;;;8.13;7.00;;;5.00;84.50;;;;;;4992474;28;20184;-90
2023/04/12 04:30:40;;;;;;;13.93;7.90;;;5.00;84.50;;;;;;4992361;28;20174;-90
2023/04/12 04:33:07;;;;;;;9.93;7.47;;;5.00;84.50;;;;;;4992935;28;20227;-90
2023/04/12 04:35:33;;;;;;;16.03;8.70;;;5.00;84.30;;;;;;4992455;28;20174;-90
2023/04/12 04:38:00;;;;;;;9.97;8.20;;;5.00;84.10;;;;;;4995215;28;20185;-91
2023/04/12 04:40:26;;;;;;;9.80;6.97;;;5.00;84.00;;;;;;4996346;28;20177;-90
2023/04/12 04:42:54;;;;;;;13.63;7.40;;;5.10;83.80;;;;;;4997144;28;20206;-91
2023/04/12 04:45:27;;;;;;;10.03;7.33;;;5.20;83.40;;;;;;4997080;28;20310;-90
2023/04/12 04:47:53;;;;;;;10.37;8.13;;;5.20;83.00;;;;;;4995792;28;20182;-90
2023/04/12 04:50:20;;;;;;;13.67;8.37;;;5.30;82.60;;;;;;4996313;28;20173;-90
2023/04/12 04:52:52;;;;;;;11.70;8.30;;;5.30;82.40;;;;;;4997618;28;20565;-90
2023/04/12 04:55:20;;;;;;;13.33;8.13;;;5.30;82.30;;;;;;4997253;28;20596;-90
2023/04/12 04:57:46;;;;;;;12.70;7.77;;;5.20;82.40;;;;;;4996330;28;20714;-91
2023/04/12 05:00:12;;;;;;;14.30;8.13;;;5.20;82.50;;;;;;4996123;28;20177;-91
2023/04/12 05:02:41;;;;;;;11.27;7.97;;;5.30;82.30;;;;;;4996088;28;20237;-90
2023/04/12 05:05:12;;;;;;;11.33;8.60;;;5.30;82.20;;;;;;4996100;28;20200;-90
2023/04/12 05:07:38;;;;;;;15.93;8.70;;;5.30;82.20;;;;;;4995877;28;20189;-90
2023/04/12 05:10:04;;;;;;;10.57;8.43;;;5.30;82.30;;;;;;4995812;28;20173;-90
2023/04/12 05:12:30;;;;;;;9.10;8.07;;;5.30;82.30;;;;;;4995532;28;20220;-90
2023/04/12 05:14:56;;;;;;;12.97;7.77;;;5.40;82.40;;;;;;4995726;28;20181;-90
2023/04/12 05:17:21;;;;;;;13.97;7.67;;;5.40;82.40;;;;;;4995659;28;20556;-90
2023/04/12 05:19:47;;;;;;;11.17;7.60;;;5.40;82.40;;;;;;4995673;28;20189;-90
2023/04/12 05:22:13;;;;;;;8.87;7.60;;;5.50;82.10;;;;;;4995380;28;20691;-90
2023/04/12 05:24:39;;;;;;;16.20;8.37;;;5.50;81.80;;;;;;4995806;28;20257;-90
2023/04/12 05:27:04;;;;;;;8.27;7.47;;;5.50;81.40;;;;;;4995497;28;20243;-90
2023/04/12 05:29:30;;;;;;;10.20;8.07;;;5.60;81.40;;;;;;4995433;28;20178;-90
2023/04/12 05:31:57;;;;;;;9.47;8.50;;;5.60;81.40;;;;;;4995346;28;20188;-91
2023/04/12 05:34:23;;;;;;;9.83;8.27;;;5.70;81.40;;;;;;4996143;28;20178;-90
2023/04/12 05:36:48;;;;;;;12.23;8.13;;;5.80;81.30;;;;;;4995294;28;20174;-90
2023/04/12 05:39:14;;;;;;;9.83;7.97;;;5.90;81.00;;;;;;4995271;28;20177;-90
2023/04/12 05:41:39;;;;;;;10.33;8.40;;;6.00;80.70;;;;;;4994988;28;20205;-90
2023/04/12 05:44:05;;;;;;;12.37;8.70;;;5.90;80.30;;;;;;4995198;28;20672;-90
2023/04/12 05:46:30;;;;;;;9.07;8.13;;;5.90;80.00;;;;;;4995006;28;20193;-90
2023/04/12 05:48:56;;;;;;;12.03;8.83;;;5.80;79.70;;;;;;4996012;28;20173;-90
2023/04/12 05:51:21;;;;;;;11.00;9.00;;;5.90;79.60;;;;;;4994832;28;20194;-91
2023/04/12 05:53:47;;;;;;;9.17;8.47;;;6.00;79.50;;;;;;4994963;28;20289;-90
2023/04/12 05:56:13;;;;;;;12.07;8.90;;;6.10;79.40;;;;;;4994910;28;20276;-91
2023/04/12 05:58:38;;;;;;;12.03;8.77;;;6.10;79.30;;;;;;4994933;28;20209;-89
2023/04/12 06:01:04;;;;;;;17.53;9.10;;;6.30;78.90;;;;;;4994737;28;20209;-90
2023/04/12 06:03:30;;;;;;;15.67;10.60;;;6.30;78.70;;;;;;4995173;28;20405;-90
2023/04/12 06:05:56;;;;;;;25.57;14.13;;;6.30;78.60;;;;;;4994695;28;20189;-90
2023/04/12 06:08:22;;;;;;;16.13;10.83;;;6.30;78.50;;;;;;4994689;28;20182;-90
2023/04/12 06:10:47;;;;;;;11.87;9.17;;;6.30;78.90;;;;;;4994654;28;20181;-90
2023/04/12 06:13:13;;;;;;;17.37;10.77;;;6.50;79.20;;;;;;4994503;28;20317;-89
2023/04/12 06:15:38;;;;;;;10.83;9.27;;;6.60;78.70;;;;;;4994493;28;20178;-90
2023/04/12 06:18:06;;;;;;;13.10;10.30;;;6.60;78.10;;;;;;4994418;28;20671;-90
2023/04/12 06:20:31;;;;;;;14.70;10.27;;;6.60;77.90;;;;;;4994446;28;20178;-90
2023/04/12 06:22:57;;;;;;;10.93;9.63;;;6.70;78.80;;;;;;4994296;28;20212;-90
2023/04/12 06:25:23;;;;;;;14.40;10.87;;;6.70;78.20;;;;;;4995498;28;20178;-90
2023/04/12 06:27:48;;;;;;;13.67;11.03;;;6.70;77.60;;;;;;4994231;28;20178;-90
2023/04/12 06:30:14;;;;;;;14.97;10.70;;;6.60;78.20;;;;;;4994477;28;20174;-89
2023/04/12 06:32:39;;;;;;;12.10;10.67;;;6.80;78.50;;;;;;4994189;28;20202;-89
2023/04/12 06:35:05;;;;;;;12.57;11.23;;;6.80;78.10;;;;;;4995367;28;20182;-90
2023/04/12 06:37:31;;;;;;;12.40;11.33;;;6.80;77.30;;;;;;4994649;28;20273;-89
2023/04/12 06:39:56;;;;;;;11.37;10.13;;;6.80;77.10;;;;;;4994171;28;20178;-90
2023/04/12 06:42:22;;;;;;;12.23;10.87;;;6.90;77.10;;;;;;4995186;28;20292;-90
2023/04/12 06:44:48;;;;;;;13.67;10.40;;;7.00;77.60;;;;;;4995262;28;20178;-90
2023/04/12 06:47:14;;;;;;;12.47;10.10;;;7.20;77.10;;;;;;4994026;28;20257;-89
2023/04/12 06:49:40;;;;;;;11.47;10.17;;;7.20;77.80;;;;;;4993952;28;20174;-89
2023/04/12 06:52:05;;;;;;;14.00;11.60;;;7.20;77.40;;;;;;4995315;28;20197;-90
2023/04/12 06:54:31;;;;;;;12.17;10.97;;;7.20;77.90;;;;;;4994633;28;20182;-90
2023/04/12 06:56:57;;;;;;;13.27;10.63;;;7.20;76.80;;;;;;4993796;28;20241;-90
2023/04/12 06:59:23;;;;;;;12.53;10.23;;;7.10;77.10;;;;;;4993095;28;20264;-89
2023/04/12 07:01:48;;;;;;;13.77;12.47;;;7.20;77.00;;;;;;4993672;28;20676;-89
2023/04/12 07:04:15;;;;;;;13.40;11.43;;;7.20;77.40;;;;;;4993733;28;20185;-89
2023/04/12 07:06:41;;;;;;;15.27;10.33;;;7.20;77.10;;;;;;4994717;28;20169;-90
2023/04/12 07:09:07;;;;;;;14.63;11.27;;;7.30;77.30;;;;;;4993677;28;20189;-89
2023/04/12 07:11:32;;;;;;;11.93;10.80;;;7.30;77.30;;;;;;4993523;28;20565;-89
2023/04/12 07:13:58;;;;;;;15.47;10.97;;;7.30;76.70;;;;;;4993289;28;20297;-90
2023/04/12 07:16:24;;;;;;;11.47;10.47;;;7.30;76.90;;;;;;4993494;28;20244;-89
2023/04/12 07:18:49;;;;;;;11.33;10.07;;;7.30;77.20;;;;;;4994566;28;20174;-90
2023/04/12 07:21:16;;;;;;;12.10;11.03;;;7.30;77.60;;;;;;4993335;28;20560;-89
2023/04/12 07:23:42;;;;;;;15.57;10.37;;;7.40;77.70;;;;;;4993410;28;20570;-90
2023/04/12 07:26:08;;;;;;;17.17;10.80;;;7.40;77.30;;;;;;4994637;28;20170;-89
2023/04/12 07:28:35;;;;;;;11.83;10.40;;;7.40;77.70;;;;;;4993265;28;20608;-89
2023/04/12 07:31:04;;;;;;;12.63;10.83;;;7.40;77.40;;;;;;4994636;28;20181;-87
2023/04/12 07:33:30;;;;;;;11.07;9.97;;;7.50;77.70;;;;;;4994361;28;20194;-87
2023/04/12 07:35:56;;;;;;;11.97;10.87;;;7.50;77.70;;;;;;4993515;28;20652;-87
2023/04/12 07:38:21;;;;;;;11.43;10.30;;;7.50;77.20;;;;;;4993227;28;20205;-88
2023/04/12 07:40:47;;;;;;;11.37;10.10;;;7.60;77.40;;;;;;4993001;28;20178;-89
2023/04/12 07:43:14;;;;;;;12.27;10.67;;;7.60;77.40;;;;;;4993420;28;20282;-90
2023/04/12 07:45:40;;;;;;;13.13;10.17;;;7.70;77.70;;;;;;4992850;28;20212;-90
2023/04/12 07:48:06;;;;;;;12.00;10.80;;;7.70;77.50;;;;;;4992919;28;20170;-89
2023/04/12 07:50:31;;;;;;;14.10;10.40;;;7.80;77.10;;;;;;4994591;28;20253;-89
2023/04/12 07:53:16;;;;;;;13.97;9.80;;;7.80;77.30;;;;;;4992902;28;20197;-90
2023/04/12 07:55:42;;;;;;;12.30;11.20;;;7.90;77.30;;;;;;4993192;28;20224;-90
2023/04/12 07:58:08;;;;;;;14.67;10.00;;;8.00;76.90;;;;;;4994125;28;20174;-90
2023/04/12 08:00:34;;;;;;;12.53;10.20;;;8.10;77.00;;;;;;4992748;28;20178;-89
2023/04/12 08:02:59;;;;;;;11.60;10.00;;;8.20;76.90;;;;;;4992544;28;20217;-89
2023/04/12 08:05:25;;;;;;;12.03;10.97;;;8.20;76.20;;;;;;4993117;28;20181;-90
2023/04/12 08:07:50;;;;;;;13.97;10.83;;;8.20;75.90;;;;;;4993166;28;20186;-89
2023/04/12 08:10:16;;;;;;;15.20;10.97;;;8.30;75.90;;;;;;4992697;28;20219;-91
2023/04/12 08:12:41;;;;;;;14.07;10.87;;;8.30;75.50;;;;;;4991637;28;20304;-89
2023/04/12 08:15:08;;;;;;;11.37;10.37;;;8.30;75.70;;;;;;4993987;28;20178;-90
2023/04/12 08:17:33;;;;;;;11.33;10.23;;;8.40;75.20;;;;;;4992964;28;20182;-90
2023/04/12 08:19:59;;;;;;;15.97;10.90;;;8.40;74.80;;;;;;4993999;28;20578;-89
2023/04/12 08:22:25;;;;;;;11.80;10.60;;;8.50;74.70;;;;;;4994016;28;20236;-90
2023/04/12 08:24:50;;;;;;;11.83;10.73;;;8.60;74.20;;;;;;4992823;28;20652;-90
2023/04/12 08:27:16;;;;;;;11.83;11.00;;;8.70;73.80;;;;;;4992929;28;20178;-91
2023/04/12 08:29:41;;;;;;;12.20;10.60;;;8.80;73.40;;;;;;4992738;28;20213;-90
2023/04/12 08:32:08;;;;;;;12.53;11.00;;;8.80;74.10;;;;;;4992583;28;20208;-90
2023/04/12 08:34:34;;;;;;;12.20;11.07;;;8.90;73.80;;;;;;4992763;28;20658;-90
2023/04/12 08:37:00;;;;;;;11.77;10.77;;;9.00;73.10;;;;;;4992552;28;20273;-90
2023/04/12 08:39:25;;;;;;;11.63;10.63;;;9.00;72.80;;;;;;4992777;28;20663;-91
2023/04/12 08:41:53;;;;;;;12.43;11.37;;;9.10;72.80;;;;;;4992884;28;20289;-89
2023/04/12 08:44:34;;;;;;;13.53;11.17;;;9.10;72.20;;;;;;4994194;28;20205;-89
2023/04/12 08:47:01;;;;;;;13.60;12.27;;;9.10;72.10;;;;;;4992738;28;20177;-89
2023/04/12 08:49:26;;;;;;;13.03;11.77;;;9.10;72.00;;;;;;4992603;28;20555;-89
2023/04/12 08:51:53;;;;;;;19.77;12.43;;;9.20;71.60;;;;;;4992321;28;20181;-89
2023/04/12 08:54:19;;;;;;;13.23;12.07;;;9.20;71.60;;;;;;4992401;28;20651;-88
2023/04/12 08:56:46;;;;;;;13.83;11.93;;;9.30;72.00;;;;;;4992295;28;20205;-88
2023/04/12 08:59:13;;;;;;;12.77;11.53;;;9.30;72.10;;;;;;4992248;28;20185;-89
2023/04/12 09:01:40;;;;;;;13.40;11.83;;;9.40;72.10;;;;;;4992095;28;20208;-89
2023/04/12 09:04:06;;;;;;;15.70;13.87;;;9.50;71.90;;;;;;4992432;28;20663;-90
2023/04/12 09:06:32;;;;;;;17.83;14.50;;;9.60;72.20;;;;;;4992895;28;20178;-88
2023/04/12 09:08:59;;;;;;;13.40;12.00;;;9.50;71.30;;;;;;4993938;28;20186;-91
2023/04/12 09:11:28;;;;;;;16.90;15.13;;;9.60;71.60;;;;;;4992519;28;20225;-87
2023/04/12 09:13:54;;;;;;;14.50;13.00;;;9.70;71.70;;;;;;4994380;28;20220;-91
2023/04/12 09:16:40;;;;;;;13.47;11.43;;;9.80;71.20;;;;;;5002432;28;20184;-92
2023/04/12 09:19:07;;;;;;;13.70;12.27;;;9.80;70.90;;;;;;4995018;28;20171;-92
2023/04/12 09:21:36;;;;;;;13.87;11.57;;;9.80;70.50;;;;;;4994544;28;20206;-89
2023/04/12 09:24:10;;;;;;;13.87;12.47;;;9.90;70.80;;;;;;4995586;28;20198;-88
2023/04/12 09:26:36;;;;;;;14.33;12.17;;;9.90;70.20;;;;;;4996299;28;20174;-89
2023/04/12 09:29:05;;;;;;;15.30;12.90;;;9.90;70.20;;;;;;4996875;28;20189;-89
2023/04/12 09:31:31;;;;;;;12.97;11.87;;;10.00;69.90;;;;;;4997157;28;20245;-90
2023/04/12 09:34:14;;;;;;;13.03;11.67;;;10.10;70.40;;;;;;4995447;28;20280;-90
2023/04/12 09:36:41;;;;;;;13.73;12.40;;;10.10;69.20;;;;;;4995529;28;20174;-90
2023/04/12 09:39:07;;;;;;;15.00;11.90;;;10.20;69.80;;;;;;4995789;28;20756;-90
2023/04/12 09:41:33;;;;;;;15.37;12.10;;;10.20;70.30;;;;;;4997081;28;20668;-90
2023/04/12 09:43:59;;;;;;;13.43;12.13;;;10.10;70.00;;;;;;4995948;28;20194;-89
2023/04/12 09:46:25;;;;;;;13.87;12.53;;;10.20;70.10;;;;;;4995405;28;20177;-89
2023/04/12 09:48:53;;;;;;;14.27;12.80;;;10.20;70.30;;;;;;4996851;28;20174;-90
2023/04/12 09:51:32;;;;;;;14.90;12.50;;;10.30;70.20;;;;;;4995262;28;20712;-89
2023/04/12 09:54:00;;;;;;;14.73;12.33;;;10.30;70.50;;;;;;4994954;28;20202;-89
2023/04/12 09:56:45;;;;;;;13.30;12.10;;;10.20;70.30;;;;;;4995228;28;20178;-88
2023/04/12 09:59:12;;;;;;;12.80;11.80;;;10.20;71.60;;;;;;4995035;28;20185;-89
2023/04/12 10:01:38;;;;;;;12.50;11.30;;;10.10;72.70;;;;;;4996376;28;20197;-89
2023/04/12 10:04:08;;;;;;;12.07;11.10;;;10.00;73.40;;;;;;4996248;28;20249;-89
2023/04/12 10:06:35;;;;;;;12.50;11.20;;;9.90;73.50;;;;;;4995178;28;20640;-90
2023/04/12 10:09:05;;;;;;;12.43;10.63;;;9.80;73.60;;;;;;4995934;28;20170;-90
2023/04/12 10:11:32;;;;;;;12.23;10.20;;;9.80;74.60;;;;;;4996187;28;20241;-89
2023/04/12 10:14:00;;;;;;;12.00;10.40;;;9.80;75.50;;;;;;4995198;28;20237;-90
2023/04/12 10:16:26;;;;;;;11.90;10.73;;;9.80;76.40;;;;;;4995479;28;20174;-89
2023/04/12 10:18:53;;;;;;;10.63;9.60;;;9.80;76.40;;;;;;4996242;28;20549;-90
2023/04/12 10:21:19;;;;;;;10.00;8.70;;;9.70;77.10;;;;;;4994640;28;20565;-90
2023/04/12 10:23:46;;;;;;;14.13;9.00;;;9.70;78.40;;;;;;4994701;28;20267;-90
2023/04/12 10:26:14;;;;;;;14.63;8.63;;;9.70;78.90;;;;;;4995709;28;20174;-89
2023/04/12 10:28:45;;;;;;;10.83;8.03;;;9.70;78.80;;;;;;4994853;28;20224;-88
2023/04/12 10:31:29;;;;;;;10.73;7.23;;;9.70;79.40;;;;;;4994931;28;20174;-90
2023/04/12 10:33:54;;;;;;;10.47;7.93;;;9.70;80.20;;;;;;4993944;28;20192;-90
2023/04/12 10:36:50;;;;;;;12.17;8.37;;;9.60;80.60;;;;;;4994171;28;20181;-90
2023/04/12 10:39:15;;;;;;;9.77;7.83;;;9.40;81.30;;;;;;4994498;28;20260;-90
2023/04/12 10:42:17;;;;;;;10.17;7.43;;;9.30;81.40;;;;;;4994313;28;20306;-89
2023/04/12 10:44:43;;;;;;;9.27;6.70;;;9.20;82.30;;;;;;4994388;28;20659;-89
2023/04/12 10:47:09;;;;;;;11.30;6.70;;;9.10;82.50;;;;;;4994143;28;20205;-89
2023/04/12 10:49:34;;;;;;;9.60;7.00;;;9.00;82.80;;;;;;4994107;28;20202;-89
2023/04/12 10:52:00;;;;;;;9.13;6.20;;;8.90;82.70;;;;;;4993989;28;20571;-89
2023/04/12 10:54:26;;;;;;;9.47;7.03;;;8.90;83.50;;;;;;4995124;28;20178;-89
2023/04/12 10:56:51;;;;;;;8.23;6.20;;;8.90;83.60;;;;;;4994053;28;20201;-89
2023/04/12 10:59:17;;;;;;;9.53;6.63;;;8.80;84.00;;;;;;4994616;28;20171;-89
2023/04/12 11:02:09;;;;;;;8.13;6.77;;;8.80;84.10;;;;;;4994336;28;20289;-89
2023/04/12 11:04:35;;;;;;;7.67;6.93;;;8.80;84.10;;;;;;4993899;28;20214;-89
2023/04/12 11:07:06;;;;;;;11.63;7.37;;;8.70;84.30;;;;;;4993886;28;20178;-90
2023/04/12 11:09:43;;;;;;;9.73;6.60;;;8.70;84.50;;;;;;4994701;28;20174;-90
2023/04/12 11:12:11;;;;;;;7.50;6.70;;;8.70;84.90;;;;;;4993554;28;20201;-89
2023/04/12 11:14:48;;;;;;;9.87;6.47;;;8.70;85.30;;;;;;4993767;28;20170;-89
2023/04/12 15:13:13;;;;;;;11.60;10.60;;;9.40;91.20;;;;;;6059679;23;20182;31
2023/04/12 15:15:40;;;;;;;12.43;11.40;;;9.50;91.30;;;;;;4898351;29;20235;-86
2023/04/12 15:18:06;;;;;;;11.57;10.73;;;9.40;91.20;;;;;;4899914;29;20260;-86
2023/04/12 15:20:31;;;;;;;12.00;11.20;;;9.40;91.40;;;;;;4899487;29;20188;-87
2023/04/12 15:22:57;;;;;;;12.20;11.20;;;9.50;91.40;;;;;;4914037;29;20209;-86
2023/04/12 15:25:23;;;;;;;11.40;10.60;;;9.40;91.20;;;;;;4914602;29;20193;-86
2023/04/12 15:27:48;;;;;;;11.37;10.50;;;9.40;91.40;;;;;;4900294;29;20209;-86
2023/04/12 15:30:14;;;;;;;11.57;10.77;;;9.40;91.30;;;;;;4899775;29;20605;-87
2023/04/12 15:32:40;;;;;;;12.07;11.17;;;9.50;91.40;;;;;;4914014;29;20236;-86
2023/04/12 15:35:06;;;;;;;12.13;11.23;;;9.60;91.40;;;;;;4913577;29;20189;-87
2023/04/12 15:37:38;;;;;;;11.63;10.63;;;9.50;91.20;;;;;;4914528;29;20656;-87
2023/04/12 15:40:14;;;;;;;11.37;10.47;;;9.40;91.30;;;;;;4900258;29;20222;-87
2023/04/12 15:42:42;;;;;;;11.53;10.50;;;9.50;91.30;;;;;;4915053;29;20269;-87
2023/04/12 15:45:08;;;;;;;11.23;10.33;;;9.50;91.40;;;;;;4915538;29;20224;-86
2023/04/12 15:47:33;;;;;;;10.30;9.60;;;9.50;91.30;;;;;;4914199;29;20185;-87
2023/04/12 15:49:59;;;;;;;10.50;9.60;;;9.40;91.40;;;;;;4914154;29;20186;-86
2023/04/12 15:52:25;;;;;;;12.00;10.83;;;9.50;91.40;;;;;;4913552;29;20208;-86
2023/04/12 15:54:51;;;;;;;11.40;10.50;;;9.50;91.50;;;;;;4914254;29;20182;-87
2023/04/12 15:57:16;;;;;;;11.50;10.53;;;9.60;91.40;;;;;;4914310;29;20275;-87
2023/04/12 15:59:43;;;;;;;18.63;12.17;;;9.60;91.50;;;;;;4900429;29;20205;-87
2023/04/12 16:02:08;;;;;;;11.10;10.20;;;9.50;91.20;;;;;;4898250;29;20215;-87
2023/04/12 16:04:35;;;;;;;11.63;10.77;;;9.40;91.20;;;;;;4912931;29;20173;-88
2023/04/12 16:07:01;;;;;;;11.17;10.40;;;9.40;91.20;;;;;;4898532;29;20233;-88
2023/04/12 16:09:31;;;;;;;13.17;10.43;;;9.40;91.20;;;;;;4898844;29;20177;-88
2023/04/12 16:11:57;;;;;;;13.30;12.10;;;9.30;91.10;;;;;;4913485;29;20183;-88
2023/04/12 16:14:23;;;;;;;29.17;25.60;;;9.40;91.30;;;;;;4912784;29;20200;-88
2023/04/12 16:16:49;;;;;;;17.77;16.40;;;9.50;91.30;;;;;;4899604;29;20177;-88
2023/04/12 16:19:14;;;;;;;13.20;12.30;;;9.40;91.30;;;;;;4913854;29;20209;-88
2023/04/12 16:21:40;;;;;;;13.77;12.77;;;9.50;91.30;;;;;;4913065;29;20205;-86
2023/04/12 16:24:06;;;;;;;16.70;15.30;;;9.50;91.30;;;;;;4898194;29;20545;-87
2023/04/12 16:26:33;;;;;;;14.50;13.13;;;9.50;91.10;;;;;;4912711;29;20186;-87
2023/04/12 16:29:00;;;;;;;12.67;11.87;;;9.40;91.10;;;;;;4898037;29;20185;-88
2023/04/12 16:31:25;;;;;;;12.97;11.97;;;9.50;91.20;;;;;;4898450;29;20174;-87
2023/04/12 16:33:51;;;;;;;12.73;11.83;;;9.60;91.10;;;;;;4915218;29;20208;-87
2023/04/12 16:36:17;;;;;;;12.53;11.63;;;9.50;90.90;;;;;;4916554;29;20196;-87
2023/04/12 16:38:44;;;;;;;12.33;11.53;;;9.30;90.90;;;;;;4916440;29;20187;-87